Terminal Aerodrome Forecast
Issued by NWS

Home | Current Version | Previous Version | Text Only | Print | Product List | Glossary On
Versions: 1 2 3 4 5 6 7 8 9 10 11 12 13 14 15
000
FTAK31 PAJN 020500
TAFAPG
TAF
PAPG 020520Z 0206/0306 VRB05KT P6SM FEW200
     FM021600 06006KT P6SM SCT200
     FM030400 VRB04KT P6SM SCT200
      AMD LTD TO CLD VIS AND WIND 0206/0215=

USA.gov is the U.S. government's official web portal to all federal, state and local government web resources and services.